Oceanus — WDI8151 — position and weather

sailwx.info

Track history (hours):
 
Tides and Currents Weather Stations Pressure Air Temp Water Temp Dewpoint Dewpoint Depression Visibility Wind Speed Wind Dir Waves Ship Positions

Oceanus

Owner: G & H TOWING COMPANY, Galveston, TX. More information available from US FCC via Universal Licensing System and Coast Guard Vessel Documentation Center.

Last reported at 2017-Nov-18 01:19 UTC. Time now 2017-Nov-18 23:28 UTC.
Position N 29°44' W 095°09'.

Length 24 m; draft 5.4 m.

Type: Tug. MMSI: 367735750.

Date/timePositionNaut miles runAvg speedWind from/ knotsBaromVisibWave heightAir tempDewpointWater temp
2017-Nov-18 01:19N 29°44' W 095°09'6 0.6
2017-Nov-17 13:43N 29°44' W 095°16'0 0.0
2017-Nov-17 13:13N 29°44' W 095°16'0 0.6
2017-Nov-17 13:00N 29°44' W 095°16'0 0.8
2017-Nov-17 12:30N 29°44' W 095°17'0 0.2
2017-Nov-17 11:45N 29°44' W 095°17'0 0.0
2017-Nov-17 11:24N 29°44' W 095°17'0 0.0
2017-Nov-17 08:54N 29°44' W 095°17'0 0.0
2017-Nov-17 08:30N 29°44' W 095°17'0 0.0
2017-Nov-17 07:57N 29°44' W 095°17'0 0.0
2017-Nov-17 06:33N 29°44' W 095°17'0 0.0
2017-Nov-17 06:18N 29°44' W 095°17'0 0.0
2017-Nov-17 05:54N 29°44' W 095°17'0 0.0
2017-Nov-17 05:12N 29°44' W 095°17'0 0.0
2017-Nov-17 04:45N 29°44' W 095°17'0 0.0
2017-Nov-17 04:30N 29°44' W 095°17'0 0.0
2017-Nov-17 04:00N 29°44' W 095°17'0 0.0
2017-Nov-17 03:24N 29°44' W 095°17'0 0.0
2017-Nov-17 01:18N 29°44' W 095°17'0 0.0
2017-Nov-17 00:57N 29°44' W 095°17'0 0.0
2017-Nov-17 00:21N 29°44' W 095°17'0 0.0
2017-Nov-16 23:57N 29°44' W 095°17'0 0.0
2017-Nov-16 22:47N 29°44' W 095°17'1 3.4
2017-Nov-16 22:30N 29°44' W 095°16'1 0.4
2017-Nov-16 19:20N 29°43' W 095°14'2 1.1
2017-Nov-16 17:54N 29°44' W 095°16'0 0.3
2017-Nov-16 17:16N 29°43' W 095°16'1 0.3
2017-Nov-16 12:34N 29°43' W 095°14'1 6.7
2017-Nov-16 12:29N 29°43' W 095°14'2 2.1
2017-Nov-16 11:37N 29°44' W 095°12'0 0.3
2017-Nov-16 10:51N 29°44' W 095°12'0 0.2
2017-Nov-16 09:54N 29°44' W 095°12'0 0.5
2017-Nov-16 09:00N 29°45' W 095°12'1 2.7
2017-Nov-16 08:28N 29°45' W 095°10'3 0.2
2017-Nov-15 13:17N 29°44' W 095°13'2 4.3
2017-Nov-15 12:53N 29°45' W 095°12'3 0.5
2017-Nov-15 06:09N 29°44' W 095°08'1 6.2
2017-Nov-15 05:56N 29°45' W 095°10'1 0.8
2017-Nov-15 05:10N 29°44' W 095°09'7 0.6
2017-Nov-14 17:48N 29°44' W 095°01'4 0.5
2017-Nov-14 08:41N 29°45' W 095°06'0 1.2
2017-Nov-14 08:27N 29°45' W 095°06'3 0.3
2017-Nov-14 00:40N 29°44' W 095°03'5 3.7
2017-Nov-13 23:21N 29°44' W 095°09'0 0.4
2017-Nov-13 23:00N 29°44' W 095°09'4 0.2
2017-Nov-13 01:10N 29°43' W 095°13'1 7.1
2017-Nov-13 00:58N 29°43' W 095°14'2 4.0
2017-Nov-13 00:28N 29°44' W 095°17'2 3.9
2017-Nov-12 23:57N 29°43' W 095°15'2 0.4
2017-Nov-12 18:05N 29°44' W 095°12'0 0.1
2017-Nov-12 18:00N 29°44' W 095°12'0 0.0
2017-Nov-12 17:30N 29°44' W 095°12'1 0.5
2017-Nov-12 16:16N 29°45' W 095°12'2 7.6
2017-Nov-12 16:00N 29°44' W 095°14'2 3.5
2017-Nov-12 15:20N 29°44' W 095°16'0 0.0
2017-Nov-12 14:59N 29°44' W 095°16'0 0.0
2017-Nov-12 14:26N 29°44' W 095°16'0 0.0
2017-Nov-12 13:53N 29°44' W 095°16'0 0.0
2017-Nov-12 13:29N 29°44' W 095°16'0 0.0
2017-Nov-12 12:59N 29°44' W 095°16'0 0.9
2017-Nov-12 12:30N 29°44' W 095°17'0 0.5
2017-Nov-12 11:59N 29°44' W 095°17'0 0.0
2017-Nov-12 11:23N 29°44' W 095°17'0 0.0
2017-Nov-12 10:59N 29°44' W 095°17'0 0.0
2017-Nov-12 10:23N 29°44' W 095°17'0 0.0
2017-Nov-12 09:59N 29°44' W 095°17'0 0.4
2017-Nov-12 09:31N 29°44' W 095°16'3 2.0
2017-Nov-12 08:16N 29°44' W 095°13'1 2.8
2017-Nov-12 07:59N 29°44' W 095°13'3 5.2
2017-Nov-12 07:24N 29°44' W 095°09'1 0.0
2017-Nov-11 09:49N 29°44' W 095°08'3 7.2
2017-Nov-11 09:24N 29°45' W 095°12'2 1.6
2017-Nov-11 08:20N 29°44' W 095°13'1 0.2
2017-Nov-11 01:42N 29°44' W 095°12'1 0.1
2017-Nov-10 21:29N 29°45' W 095°12'2 1.8
2017-Nov-10 20:10N 29°43' W 095°14'0 0.0
2017-Nov-10 12:17N 29°44' W 095°14'2 7.2
2017-Nov-10 11:59N 29°45' W 095°12'2 0.1
2017-Nov-09 13:17N 29°44' W 095°14'2 7.1
2017-Nov-09 13:00N 29°44' W 095°16'0 0.2
2017-Nov-09 12:29N 29°44' W 095°16'0 0.1
2017-Nov-09 11:18N 29°44' W 095°16'0 0.0
2017-Nov-09 10:54N 29°44' W 095°16'0 0.0
2017-Nov-09 09:30N 29°44' W 095°16'0 0.0
2017-Nov-09 09:00N 29°44' W 095°16'1 1.1
2017-Nov-09 08:20N 29°44' W 095°17'1 1.7
2017-Nov-09 07:59N 29°44' W 095°16'0 0.8
2017-Nov-09 07:30N 29°43' W 095°16'0 0.4
2017-Nov-09 06:59N 29°44' W 095°16'0 0.0
2017-Nov-09 06:26N 29°44' W 095°16'0 0.0
2017-Nov-09 05:47N 29°44' W 095°16'0 0.0
2017-Nov-09 05:20N 29°44' W 095°16'0 0.0
2017-Nov-09 04:59N 29°44' W 095°16'0 0.0
2017-Nov-09 04:23N 29°44' W 095°16'0 0.0
2017-Nov-09 03:59N 29°44' W 095°16'0 0.0
2017-Nov-09 02:17N 29°44' W 095°16'0 1.2
2017-Nov-09 02:01N 29°44' W 095°17'0 0.3
2017-Nov-09 00:56N 29°44' W 095°16'2 3.2
2017-Nov-09 00:24N 29°43' W 095°14'1 0.2
2017-Nov-08 20:07N 29°44' W 095°13'  
Track history (hours):
 
Tides and Currents Weather Stations Pressure Air Temp Water Temp Dewpoint Dewpoint Depression Visibility Wind Speed Wind Dir Waves Ship Positions

Oceanus

Owner: G & H TOWING COMPANY, Galveston, TX. More information available from US FCC via Universal Licensing System and Coast Guard Vessel Documentation Center.

Last reported at 2017-Nov-18 01:19 UTC. Time now 2017-Nov-18 23:28 UTC.
Position N 29°44' W 095°09'.

Length 24 m; draft 5.4 m.

Type: Tug. MMSI: 367735750.

Date/timePositionNaut miles runAvg speedWind from/ knotsBaromVisibWave heightAir tempDewpointWater temp
2017-Nov-18 01:19N 29°44' W 095°09'6 0.6
2017-Nov-17 13:43N 29°44' W 095°16'0 0.0
2017-Nov-17 13:13N 29°44' W 095°16'0 0.6
2017-Nov-17 13:00N 29°44' W 095°16'0 0.8
2017-Nov-17 12:30N 29°44' W 095°17'0 0.2
2017-Nov-17 11:45N 29°44' W 095°17'0 0.0
2017-Nov-17 11:24N 29°44' W 095°17'0 0.0
2017-Nov-17 08:54N 29°44' W 095°17'0 0.0
2017-Nov-17 08:30N 29°44' W 095°17'0 0.0
2017-Nov-17 07:57N 29°44' W 095°17'0 0.0
2017-Nov-17 06:33N 29°44' W 095°17'0 0.0
2017-Nov-17 06:18N 29°44' W 095°17'0 0.0
2017-Nov-17 05:54N 29°44' W 095°17'0 0.0
2017-Nov-17 05:12N 29°44' W 095°17'0 0.0
2017-Nov-17 04:45N 29°44' W 095°17'0 0.0
2017-Nov-17 04:30N 29°44' W 095°17'0 0.0
2017-Nov-17 04:00N 29°44' W 095°17'0 0.0
2017-Nov-17 03:24N 29°44' W 095°17'0 0.0
2017-Nov-17 01:18N 29°44' W 095°17'0 0.0
2017-Nov-17 00:57N 29°44' W 095°17'0 0.0
2017-Nov-17 00:21N 29°44' W 095°17'0 0.0
2017-Nov-16 23:57N 29°44' W 095°17'0 0.0
2017-Nov-16 22:47N 29°44' W 095°17'1 3.4
2017-Nov-16 22:30N 29°44' W 095°16'1 0.4
2017-Nov-16 19:20N 29°43' W 095°14'2 1.1
2017-Nov-16 17:54N 29°44' W 095°16'0 0.3
2017-Nov-16 17:16N 29°43' W 095°16'1 0.3
2017-Nov-16 12:34N 29°43' W 095°14'1 6.7
2017-Nov-16 12:29N 29°43' W 095°14'2 2.1
2017-Nov-16 11:37N 29°44' W 095°12'0 0.3
2017-Nov-16 10:51N 29°44' W 095°12'0 0.2
2017-Nov-16 09:54N 29°44' W 095°12'0 0.5
2017-Nov-16 09:00N 29°45' W 095°12'1 2.7
2017-Nov-16 08:28N 29°45' W 095°10'3 0.2
2017-Nov-15 13:17N 29°44' W 095°13'2 4.3
2017-Nov-15 12:53N 29°45' W 095°12'3 0.5
2017-Nov-15 06:09N 29°44' W 095°08'1 6.2
2017-Nov-15 05:56N 29°45' W 095°10'1 0.8
2017-Nov-15 05:10N 29°44' W 095°09'7 0.6
2017-Nov-14 17:48N 29°44' W 095°01'4 0.5
2017-Nov-14 08:41N 29°45' W 095°06'0 1.2
2017-Nov-14 08:27N 29°45' W 095°06'3 0.3
2017-Nov-14 00:40N 29°44' W 095°03'5 3.7
2017-Nov-13 23:21N 29°44' W 095°09'0 0.4
2017-Nov-13 23:00N 29°44' W 095°09'4 0.2
2017-Nov-13 01:10N 29°43' W 095°13'1 7.1
2017-Nov-13 00:58N 29°43' W 095°14'2 4.0
2017-Nov-13 00:28N 29°44' W 095°17'2 3.9
2017-Nov-12 23:57N 29°43' W 095°15'2 0.4
2017-Nov-12 18:05N 29°44' W 095°12'0 0.1
2017-Nov-12 18:00N 29°44' W 095°12'0 0.0
2017-Nov-12 17:30N 29°44' W 095°12'1 0.5
2017-Nov-12 16:16N 29°45' W 095°12'2 7.6
2017-Nov-12 16:00N 29°44' W 095°14'2 3.5
2017-Nov-12 15:20N 29°44' W 095°16'0 0.0
2017-Nov-12 14:59N 29°44' W 095°16'0 0.0
2017-Nov-12 14:26N 29°44' W 095°16'0 0.0
2017-Nov-12 13:53N 29°44' W 095°16'0 0.0
2017-Nov-12 13:29N 29°44' W 095°16'0 0.0
2017-Nov-12 12:59N 29°44' W 095°16'0 0.9
2017-Nov-12 12:30N 29°44' W 095°17'0 0.5
2017-Nov-12 11:59N 29°44' W 095°17'0 0.0
2017-Nov-12 11:23N 29°44' W 095°17'0 0.0
2017-Nov-12 10:59N 29°44' W 095°17'0 0.0
2017-Nov-12 10:23N 29°44' W 095°17'0 0.0
2017-Nov-12 09:59N 29°44' W 095°17'0 0.4
2017-Nov-12 09:31N 29°44' W 095°16'3 2.0
2017-Nov-12 08:16N 29°44' W 095°13'1 2.8
2017-Nov-12 07:59N 29°44' W 095°13'3 5.2
2017-Nov-12 07:24N 29°44' W 095°09'1 0.0
2017-Nov-11 09:49N 29°44' W 095°08'3 7.2
2017-Nov-11 09:24N 29°45' W 095°12'2 1.6
2017-Nov-11 08:20N 29°44' W 095°13'1 0.2
2017-Nov-11 01:42N 29°44' W 095°12'1 0.1
2017-Nov-10 21:29N 29°45' W 095°12'2 1.8
2017-Nov-10 20:10N 29°43' W 095°14'0 0.0
2017-Nov-10 12:17N 29°44' W 095°14'2 7.2
2017-Nov-10 11:59N 29°45' W 095°12'2 0.1
2017-Nov-09 13:17N 29°44' W 095°14'2 7.1
2017-Nov-09 13:00N 29°44' W 095°16'0 0.2
2017-Nov-09 12:29N 29°44' W 095°16'0 0.1
2017-Nov-09 11:18N 29°44' W 095°16'0 0.0
2017-Nov-09 10:54N 29°44' W 095°16'0 0.0
2017-Nov-09 09:30N 29°44' W 095°16'0 0.0
2017-Nov-09 09:00N 29°44' W 095°16'1 1.1
2017-Nov-09 08:20N 29°44' W 095°17'1 1.7
2017-Nov-09 07:59N 29°44' W 095°16'0 0.8
2017-Nov-09 07:30N 29°43' W 095°16'0 0.4
2017-Nov-09 06:59N 29°44' W 095°16'0 0.0
2017-Nov-09 06:26N 29°44' W 095°16'0 0.0
2017-Nov-09 05:47N 29°44' W 095°16'0 0.0
2017-Nov-09 05:20N 29°44' W 095°16'0 0.0
2017-Nov-09 04:59N 29°44' W 095°16'0 0.0
2017-Nov-09 04:23N 29°44' W 095°16'0 0.0
2017-Nov-09 03:59N 29°44' W 095°16'0 0.0
2017-Nov-09 02:17N 29°44' W 095°16'0 1.2
2017-Nov-09 02:01N 29°44' W 095°17'0 0.3
2017-Nov-09 00:56N 29°44' W 095°16'2 3.2
2017-Nov-09 00:24N 29°43' W 095°14'1 0.2
2017-Nov-08 20:07N 29°44' W 095°13'  

Dump ship's entire track history